• Join FlightAware (Why Join?)
  • Login
  • US Flag 
03:30PM EST


 

Airport Tracker/Info


-or-


 

Live Flight TrackerFlight Track Log ✈ AAL994 ✈ 04-Oct-2013 ✈ MNMG / MGA - KMIA

Flight Track Log - Related Links

Times and Time Zones

All times are in EDT time to prevent confusion due to time zone crossing. See the AAL994 flight status page for this flight to view local times or setup timezone preferences in your user account.

Time Position Orientation Groundspeed Altitude Reporting Facility
EDT Latitude Longitude Course Direction KTS MPH feet Rate Location/Type
08:49AM 12.4587 -86.0418 22° Northeast  Level Estimated
08:50AM 12.5639 -85.9981 22° Northeast  Level FlightAware Approximate
08:51AM 12.6690 -85.9545 22° Northeast  Level FlightAware Approximate
08:52AM 12.7747 -85.9122 21° North  Level Estimated
08:53AM 12.8800 -85.8687 22° Northeast  Level FlightAware Approximate
08:54AM 12.9857 -85.8264 18° North  Level Estimated
08:55AM 13.0923 -85.7864 20° North  Level FlightAware Approximate
08:56AM 13.1980 -85.7440 23° Northeast  Level Estimated
08:57AM 13.3037 -85.7016 26° Northeast  Level Estimated
08:58AM 13.4093 -85.6591 20° North  Level Estimated
08:59AM 13.5154 -85.6176 21° North  Level FlightAware Approximate
09:00AM 13.6214 -85.5760 21° North  Level FlightAware Approximate
09:01AM 13.7271 -85.5334 21° North  Level Estimated
09:02AM 13.8327 -85.4908 21° North  Level Estimated
09:03AM 13.9385 -85.4486 21° North  Level FlightAware Approximate
09:04AM 14.0444 -85.4064 21° North  Level FlightAware Approximate
09:05AM 14.1502 -85.3641 21° North  Level FlightAware Approximate
09:06AM 14.2560 -85.3218 21° North  Level FlightAware Approximate
09:07AM 14.3618 -85.2795 21° North  Level FlightAware Approximate
09:08AM 14.4676 -85.2371 21° North  Level FlightAware Approximate
09:09AM 14.5750 -85.1941 21° North  Level FlightAware Approximate
09:10AM 14.6822 -85.1504 21° North  Level Estimated
09:11AM 14.7897 -85.1076 21° North  Level FlightAware Approximate
09:12AM 14.8972 -85.0647 21° North  Level FlightAware Approximate
09:13AM 15.0047 -85.0219 21° North  Level FlightAware Approximate
09:14AM 15.1122 -84.9789 21° North  Level FlightAware Approximate
09:15AM 15.2197 -84.9359 21° North  Level FlightAware Approximate
09:16AM 15.3272 -84.8929 21° North  Level FlightAware Approximate
09:17AM 15.4346 -84.8498 21° North  Level FlightAware Approximate
09:18AM 15.5421 -84.8067 21° North  Level FlightAware Approximate
09:19AM 15.6496 -84.7636 21° North  Level FlightAware Approximate
09:20AM 15.7570 -84.7204 21° North  Level FlightAware Approximate
09:21AM 15.8645 -84.6771 21° North  Level FlightAware Approximate
09:22AM 15.9719 -84.6338 21° North  Level FlightAware Approximate
09:23AM 16.0793 -84.5905 21° North  Level FlightAware Approximate
09:24AM 16.1867 -84.5471 21° North  Level FlightAware Approximate
09:25AM 16.2941 -84.5036 21° North  Level FlightAware Approximate
09:26AM 16.4015 -84.4602 21° North  Level FlightAware Approximate
09:27AM 16.5089 -84.4166 21° North  Level FlightAware Approximate
09:28AM 16.6163 -84.3731 21° North  Level FlightAware Approximate
09:29AM 16.7236 -84.3294 21° North  Level FlightAware Approximate
09:30AM 16.8310 -84.2858 21° North  Level FlightAware Approximate
09:31AM 16.9384 -84.2420 21° North  Level FlightAware Approximate
09:32AM 17.0457 -84.1982 21° North  Level FlightAware Approximate
09:33AM 17.1530 -84.1544 21° North  Level FlightAware Approximate
09:34AM 17.2603 -84.1105 21° North  Level FlightAware Approximate
09:35AM 17.3677 -84.0666 21° North  Level FlightAware Approximate
09:36AM 17.4750 -84.0226 21° North  Level FlightAware Approximate
09:37AM 17.5823 -83.9786 21° North  Level FlightAware Approximate
09:38AM 17.6895 -83.9345 21° North  Level FlightAware Approximate
09:39AM 17.7968 -83.8904 21° North  Level FlightAware Approximate
09:40AM 17.9041 -83.8462 21° North  Level FlightAware Approximate
09:41AM 18.0113 -83.8019 21° North  Level FlightAware Approximate
09:42AM 18.1185 -83.7576 21° North  Level FlightAware Approximate
09:43AM 18.2258 -83.7133 21° North  Level FlightAware Approximate
09:44AM 18.3330 -83.6689 21° North  Level FlightAware Approximate
09:45AM 18.4402 -83.6244 21° North  Level FlightAware Approximate
09:46AM 18.5474 -83.5799 21° North  Level FlightAware Approximate
09:47AM 18.6546 -83.5353 22° Northeast  Level FlightAware Approximate
09:48AM 18.7618 -83.4907 22° Northeast  Level FlightAware Approximate
09:49AM 18.8689 -83.4460 22° Northeast  Level FlightAware Approximate
09:50AM 18.9761 -83.4013 22° Northeast  Level FlightAware Approximate
09:51AM 19.0833 -83.3565 22° Northeast  Level FlightAware Approximate
09:52AM 19.1904 -83.3116 22° Northeast  Level FlightAware Approximate
09:53AM 19.2975 -83.2667 22° Northeast  Level FlightAware Approximate
09:54AM 19.4046 -83.2217 22° Northeast  Level FlightAware Approximate
09:55AM 19.5112 -83.1751 22° Northeast  Level Estimated
09:56AM 19.6182 -83.1300 22° Northeast  Level FlightAware Approximate
09:57AM 19.7253 -83.0847 22° Northeast  Level FlightAware Approximate
09:58AM 19.8323 -83.0394 22° Northeast  Level FlightAware Approximate
09:59AM 19.9393 -82.9941 22° Northeast  Level FlightAware Approximate
10:00AM 20.0457 -82.9471 22° Northeast  Level Estimated
10:01AM 20.1526 -82.9012 22° Northeast  Level FlightAware Approximate
10:02AM 20.2595 -82.8553 22° Northeast  Level FlightAware Approximate
10:03AM 20.3663 -82.8093 22° Northeast  Level FlightAware Approximate
10:04AM 20.4732 -82.7633 22° Northeast  Level FlightAware Approximate
10:05AM 20.5800 -82.7172 22° Northeast  Level FlightAware Approximate
10:06AM 20.6876 -82.6706 22° Northeast  Level FlightAware Approximate
10:07AM 20.7952 -82.6240 22° Northeast  Level FlightAware Approximate
10:08AM 20.9028 -82.5774 22° Northeast  Level FlightAware Approximate
10:09AM 21.0104 -82.5306 22° Northeast  Level FlightAware Approximate
10:10AM 21.1180 -82.4838 22° Northeast  Level FlightAware Approximate
10:11AM 21.2256 -82.4370 22° Northeast  Level FlightAware Approximate
10:12AM 21.3332 -82.3901 22° Northeast  Level FlightAware Approximate
10:13AM 21.4407 -82.3431 22° Northeast  Level FlightAware Approximate
10:14AM 21.5482 -82.2960 22° Northeast  Level FlightAware Approximate
10:15AM 21.6558 -82.2488 22° Northeast  Level FlightAware Approximate
10:16AM 21.7633 -82.2016 22° Northeast  Level FlightAware Approximate
10:17AM 21.8708 -82.1544 22° Northeast  Level FlightAware Approximate
10:18AM 21.9782 -82.1070 22° Northeast  Level FlightAware Approximate
10:19AM 22.0857 -82.0596 22° Northeast  Level FlightAware Approximate
10:20AM 22.1931 -82.0121 22° Northeast  Level FlightAware Approximate
10:21AM 22.3006 -81.9645 22° Northeast  Level FlightAware Approximate
10:22AM 22.4051 -81.9214 21° North  Level FlightAware Approximate
10:23AM 22.5082 -81.8746 23° Northeast  Level FlightAware Approximate
10:24AM 22.6111 -81.8272 23° Northeast  Level FlightAware Approximate
10:25AM 22.7140 -81.7798 23° Northeast  Level FlightAware Approximate
10:26AM 22.8169 -81.7323 23° Northeast  Level FlightAware Approximate
10:26AM 23.3186 -81.3828 21° North 465 535 36,000  Level Miami Center
10:27AM 22.9198 -81.6847 23° Northeast  Level FlightAware Approximate
10:27AM 23.4406 -81.3556 12° North 452 520 35,900  Level Miami Center
10:28AM 23.0226 -81.6371 23° Northeast  Level FlightAware Approximate
10:28AM 23.5606 -81.3233 14° North 447 514 36,000  Level Miami Center
10:29AM 23.1263 -81.5915 21° North  Level FlightAware Approximate
10:29AM 23.6844 -81.2961 11° North 447 514 35,900  Level Miami Center
10:30AM 23.2305 -81.5473 21° North  Level FlightAware Approximate
10:30AM 23.8044 -81.2661 13° North 447 514 36,000  Level Miami Center
10:31AM 23.9264 -81.2319 14° North 447 514 36,000 -60 Level Miami Center
10:32AM 24.0464 -81.2064 11° North 440 506 35,900 -1,800 Descending Miami Center
10:33AM 24.1700 -81.1858 North 440 506 32,500 -3,480 Descending Miami Center
10:34AM 24.2983 -81.1583 11° North 452 520 29,000 -3,060 Descending Miami Center
10:35AM 24.4286 -81.1331 10° North 463 533 26,400 -2,580 Descending Miami Center
10:36AM 24.5567 -81.1100 North 468 539 23,900 -2,520 Descending Miami Center
10:37AM 24.6764 -81.0822 12° North 462 532 21,400 -2,580 Descending Miami Center
10:38AM 24.7961 -81.0567 11° North 442 509 18,800 -2,400 Descending Miami Center
10:39AM 24.9097 -81.0353 10° North 426 490 16,600 -2,340 Descending Miami Center
10:40AM 25.0189 -81.0136 10° North 408 470 14,200 -2,160 Descending Miami Center
10:40AM 25.0922 -81.0025 North 385 443 13,000 -1,620 Descending Miami Center
10:41AM 25.1217 -80.9919 18° North 389 448 12,600 -1,200 Descending Miami Center
10:41AM 25.1889 -80.9828 North 374 430 11,900 -1,140 Descending Miami Center
10:42AM 25.2225 -80.9747 12° North 377 434 11,500 -1,020 Descending Miami Center
10:42AM 25.2897 -80.9608 11° North 366 421 10,900 -900 Descending Miami Center
10:43AM 25.3233 -80.9550 North 370 426 10,600 -840 Descending Miami Center
10:43AM 25.3947 -80.9414 10° North 359 413 10,100 -600 Descending Miami Center
10:44AM 25.4200 -80.9353 12° North 358 412 9,900 -120 Descending Miami Center
10:44AM 25.4786 -80.9258 North 284 327 10,000  Climbing Miami Center
10:45AM 25.5250 -80.9136 13° North 323 372 9,900  Descending Miami Center
10:45AM 25.5461 -80.9097 North 281 323 10,000 -240 Climbing Miami Center
10:46AM 25.5786 -80.8578 55° Northeast 264 304 9,700 -840 Descending Miami Center
10:46AM 25.5878 -80.8328 68° East 292 336 9,200 -1,620 Descending Miami Center
10:47AM 25.6206 -80.7786 56° Northeast 264 304 8,100 -1,500 Descending Miami Center
10:47AM 25.6294 -80.7558 67° East 287 330 7,700 -1,320 Descending Miami Center
10:48AM 25.6617 -80.7200 45° Northeast 270 311 6,800 -1,200 Descending Miami Center
10:48AM 25.6853 -80.7000 37° Northeast 273 314 6,500 -720 Descending Miami Center
10:49AM 25.7300 -80.6692 32° Northeast 263 303 6,100 -780 Descending Miami Center
10:49AM 25.7469 -80.6536 40° Northeast 224 258 5,700 -1,500 Descending Miami Center
10:50AM 25.7750 -80.6222 45° Northeast 245 282 4,600 -1,740 Descending Miami Center
10:50AM 25.7736 -80.5922 93° East 226 260 3,800 -1,200 Descending Miami Center
10:51AM 25.7731 -80.5322 91° East 212 244 3,000 -600 Descending Miami Center
10:52AM 25.7786 -80.4769 84° East 170 196 2,700 -600 Descending Miami Center
10:53AM 25.7800 -80.4239 88° East 171 197 1,800 -840 Descending Miami Center
10:54AM 25.7792 -80.3708 91° East 149 171 1,000 -720 Descending Miami Center
10:55AM 25.7822 -80.3317 85° East 139 160 400 -660 Descending Miami Center